sensor_id;sensor_type;location;lat;lon;timestamp;pressure;altitude;pressure_sealevel;temperature;humidity
6833;BME280;3454;42.654;23.378;2023-01-08T00:01:40;94973.31;;;4.35;94.00
6833;BME280;3454;42.654;23.378;2023-01-08T00:04:05;94987.19;;;4.42;93.85
6833;BME280;3454;42.654;23.378;2023-01-08T00:06:30;94953.81;;;4.24;92.82
6833;BME280;3454;42.654;23.378;2023-01-08T00:08:56;94965.72;;;4.36;94.17
6833;BME280;3454;42.654;23.378;2023-01-08T00:11:21;94936.56;;;4.32;94.47
6833;BME280;3454;42.654;23.378;2023-01-08T00:13:47;94956.31;;;4.24;94.39
6833;BME280;3454;42.654;23.378;2023-01-08T00:16:14;94960.97;;;4.16;93.07
6833;BME280;3454;42.654;23.378;2023-01-08T00:18:41;94954.16;;;4.02;94.26
6833;BME280;3454;42.654;23.378;2023-01-08T00:21:06;94931.78;;;3.98;96.44
6833;BME280;3454;42.654;23.378;2023-01-08T00:23:33;94934.31;;;3.98;95.90
6833;BME280;3454;42.654;23.378;2023-01-08T00:26:00;94959.31;;;4.15;94.27
6833;BME280;3454;42.654;23.378;2023-01-08T00:28:26;94941.97;;;4.10;96.32
6833;BME280;3454;42.654;23.378;2023-01-08T00:30:52;94959.97;;;4.18;94.93
6833;BME280;3454;42.654;23.378;2023-01-08T00:33:17;94937.13;;;4.07;95.59
6833;BME280;3454;42.654;23.378;2023-01-08T00:35:43;94957.38;;;4.20;94.26
6833;BME280;3454;42.654;23.378;2023-01-08T00:38:09;94988.88;;;4.41;93.16
6833;BME280;3454;42.654;23.378;2023-01-08T00:40:35;94968.97;;;4.22;93.55
6833;BME280;3454;42.654;23.378;2023-01-08T00:43:00;94960.28;;;4.28;94.44
6833;BME280;3454;42.654;23.378;2023-01-08T00:45:26;94970.81;;;4.35;94.76
6833;BME280;3454;42.654;23.378;2023-01-08T00:47:51;94937.47;;;4.31;95.57
6833;BME280;3454;42.654;23.378;2023-01-08T00:50:18;94974.22;;;4.34;94.40
6833;BME280;3454;42.654;23.378;2023-01-08T00:52:43;94968.63;;;4.28;93.69
6833;BME280;3454;42.654;23.378;2023-01-08T00:55:08;94987.06;;;4.29;93.27
6833;BME280;3454;42.654;23.378;2023-01-08T00:57:36;94965.09;;;4.17;94.68
6833;BME280;3454;42.654;23.378;2023-01-08T01:00:03;94994.25;;;4.35;92.21
6833;BME280;3454;42.654;23.378;2023-01-08T01:02:29;94995.00;;;4.37;92.80
6833;BME280;3454;42.654;23.378;2023-01-08T01:04:55;94968.38;;;4.33;93.28
6833;BME280;3454;42.654;23.378;2023-01-08T01:07:20;95007.31;;;4.42;92.25
6833;BME280;3454;42.654;23.378;2023-01-08T01:09:45;94987.97;;;4.28;92.39
6833;BME280;3454;42.654;23.378;2023-01-08T01:12:11;95005.91;;;4.52;91.48
6833;BME280;3454;42.654;23.378;2023-01-08T01:14:37;95014.00;;;4.57;91.60
6833;BME280;3454;42.654;23.378;2023-01-08T01:17:02;94976.88;;;4.46;93.33
6833;BME280;3454;42.654;23.378;2023-01-08T01:19:28;94996.00;;;4.49;92.24
6833;BME280;3454;42.654;23.378;2023-01-08T01:21:53;95008.91;;;4.58;91.46
6833;BME280;3454;42.654;23.378;2023-01-08T01:24:19;95020.44;;;4.62;90.14
6833;BME280;3454;42.654;23.378;2023-01-08T01:26:46;95013.81;;;4.46;90.67
6833;BME280;3454;42.654;23.378;2023-01-08T01:29:11;94991.34;;;4.27;91.68
6833;BME280;3454;42.654;23.378;2023-01-08T01:31:37;94983.28;;;4.22;91.55
6833;BME280;3454;42.654;23.378;2023-01-08T01:34:02;94991.03;;;4.33;91.35
6833;BME280;3454;42.654;23.378;2023-01-08T01:36:28;94988.75;;;4.28;91.75
6833;BME280;3454;42.654;23.378;2023-01-08T01:38:55;94995.19;;;4.34;91.41
6833;BME280;3454;42.654;23.378;2023-01-08T01:41:29;94992.72;;;4.33;91.26
6833;BME280;3454;42.654;23.378;2023-01-08T01:44:31;94964.75;;;4.23;92.68
6833;BME280;3454;42.654;23.378;2023-01-08T01:46:45;94979.59;;;4.28;91.81
6833;BME280;3454;42.654;23.378;2023-01-08T01:49:18;94954.06;;;4.19;93.72
6833;BME280;3454;42.654;23.378;2023-01-08T01:51:50;94965.75;;;4.05;92.77
6833;BME280;3454;42.654;23.378;2023-01-08T01:54:17;94945.91;;;3.85;93.62
6833;BME280;3454;42.654;23.378;2023-01-08T01:56:43;94918.13;;;3.57;95.22
6833;BME280;3454;42.654;23.378;2023-01-08T01:59:10;94891.56;;;3.37;96.52
6833;BME280;3454;42.654;23.378;2023-01-08T02:01:36;94902.38;;;3.37;97.38
6833;BME280;3454;42.654;23.378;2023-01-08T02:04:02;94894.53;;;3.43;97.92
6833;BME280;3454;42.654;23.378;2023-01-08T02:16:46;94904.66;;;3.26;97.73
6833;BME280;3454;42.654;23.378;2023-01-08T02:19:37;94890.66;;;3.22;98.89
6833;BME280;3454;42.654;23.378;2023-01-08T02:27:28;94889.72;;;2.92;100.00
6833;BME280;3454;42.654;23.378;2023-01-08T02:29:56;94879.28;;;2.84;100.00
6833;BME280;3454;42.654;23.378;2023-01-08T02:32:26;94883.06;;;2.91;100.00
6833;BME280;3454;42.654;23.378;2023-01-08T02:34:53;94895.78;;;2.88;100.00
6833;BME280;3454;42.654;23.378;2023-01-08T02:37:19;94872.31;;;2.89;100.00
6833;BME280;3454;42.654;23.378;2023-01-08T02:39:59;94901.78;;;3.01;100.00
6833;BME280;3454;42.654;23.378;2023-01-08T02:48:36;94903.63;;;3.15;99.78
6833;BME280;3454;42.654;23.378;2023-01-08T02:51:12;94897.84;;;3.28;99.52
6833;BME280;3454;42.654;23.378;2023-01-08T02:53:47;94875.31;;;3.11;100.00
6833;BME280;3454;42.654;23.378;2023-01-08T02:56:18;94882.53;;;3.17;100.00
6833;BME280;3454;42.654;23.378;2023-01-08T02:58:45;94896.06;;;3.30;98.02
6833;BME280;3454;42.654;23.378;2023-01-08T03:01:14;94912.06;;;3.45;97.79
6833;BME280;3454;42.654;23.378;2023-01-08T03:03:42;94928.91;;;3.59;96.95
6833;BME280;3454;42.654;23.378;2023-01-08T03:06:13;94913.19;;;3.55;97.07
6833;BME280;3454;42.654;23.378;2023-01-08T03:08:41;94954.03;;;3.59;94.13
6833;BME280;3454;42.654;23.378;2023-01-08T03:11:13;94942.66;;;3.52;95.01
6833;BME280;3454;42.654;23.378;2023-01-08T03:16:32;94942.63;;;3.53;95.09
6833;BME280;3454;42.654;23.378;2023-01-08T03:19:04;94948.91;;;3.45;95.00
6833;BME280;3454;42.654;23.378;2023-01-08T03:21:34;94925.97;;;3.19;95.80
6833;BME280;3454;42.654;23.378;2023-01-08T03:24:02;94896.13;;;2.98;98.73
6833;BME280;3454;42.654;23.378;2023-01-08T03:26:30;94876.69;;;2.86;99.92
6833;BME280;3454;42.654;23.378;2023-01-08T03:28:57;94916.31;;;3.12;98.31
6833;BME280;3454;42.654;23.378;2023-01-08T03:31:26;94901.97;;;2.98;98.24
6833;BME280;3454;42.654;23.378;2023-01-08T03:33:52;94891.50;;;2.90;99.11
6833;BME280;3454;42.654;23.378;2023-01-08T03:36:22;94890.91;;;2.85;100.00
6833;BME280;3454;42.654;23.378;2023-01-08T03:38:57;94900.00;;;2.88;100.00
6833;BME280;3454;42.654;23.378;2023-01-08T03:41:23;94902.44;;;2.89;100.00
6833;BME280;3454;42.654;23.378;2023-01-08T03:43:52;94900.91;;;3.02;100.00
6833;BME280;3454;42.654;23.378;2023-01-08T03:46:21;94896.94;;;2.98;100.00
6833;BME280;3454;42.654;23.378;2023-01-08T03:48:49;94894.56;;;2.95;100.00
6833;BME280;3454;42.654;23.378;2023-01-08T03:51:15;94909.19;;;3.04;99.04
6833;BME280;3454;42.654;23.378;2023-01-08T03:53:43;94889.75;;;3.08;99.14
6833;BME280;3454;42.654;23.378;2023-01-08T03:56:08;94884.53;;;2.95;98.88
6833;BME280;3454;42.654;23.378;2023-01-08T03:58:34;94912.88;;;2.97;97.60
6833;BME280;3454;42.654;23.378;2023-01-08T04:00:59;94902.81;;;2.82;98.68
6833;BME280;3454;42.654;23.378;2023-01-08T04:03:25;94904.78;;;2.77;98.98
6833;BME280;3454;42.654;23.378;2023-01-08T04:05:50;94905.97;;;2.85;99.18
6833;BME280;3454;42.654;23.378;2023-01-08T04:08:16;94906.88;;;2.84;98.50
6833;BME280;3454;42.654;23.378;2023-01-08T04:10:41;94916.63;;;2.90;99.50
6833;BME280;3454;42.654;23.378;2023-01-08T04:13:06;94909.09;;;2.90;99.17
6833;BME280;3454;42.654;23.378;2023-01-08T04:15:32;94911.84;;;3.01;99.33
6833;BME280;3454;42.654;23.378;2023-01-08T04:17:58;94918.28;;;3.07;98.14
6833;BME280;3454;42.654;23.378;2023-01-08T04:20:23;94945.81;;;3.24;96.21
6833;BME280;3454;42.654;23.378;2023-01-08T04:22:49;94929.28;;;3.20;97.54
6833;BME280;3454;42.654;23.378;2023-01-08T04:25:14;94926.13;;;3.16;97.47
6833;BME280;3454;42.654;23.378;2023-01-08T04:27:40;94952.41;;;3.26;95.80
6833;BME280;3454;42.654;23.378;2023-01-08T04:30:05;94948.97;;;3.27;95.77
6833;BME280;3454;42.654;23.378;2023-01-08T04:32:31;94923.38;;;3.21;96.69
6833;BME280;3454;42.654;23.378;2023-01-08T04:34:57;94946.22;;;3.16;95.23
6833;BME280;3454;42.654;23.378;2023-01-08T04:37:22;94904.78;;;2.92;97.59
6833;BME280;3454;42.654;23.378;2023-01-08T04:39:47;94904.91;;;2.74;98.36
6833;BME280;3454;42.654;23.378;2023-01-08T04:42:13;94895.56;;;2.60;99.60
6833;BME280;3454;42.654;23.378;2023-01-08T04:44:38;94896.72;;;2.70;99.22
6833;BME280;3454;42.654;23.378;2023-01-08T04:47:04;94894.53;;;2.64;100.00
6833;BME280;3454;42.654;23.378;2023-01-08T04:49:29;94901.78;;;2.53;100.00
6833;BME280;3454;42.654;23.378;2023-01-08T04:51:54;94886.28;;;2.62;100.00
6833;BME280;3454;42.654;23.378;2023-01-08T04:54:20;94919.03;;;2.59;99.30
6833;BME280;3454;42.654;23.378;2023-01-08T04:56:45;94898.31;;;2.38;100.00
6833;BME280;3454;42.654;23.378;2023-01-08T04:59:13;94907.69;;;2.52;100.00
6833;BME280;3454;42.654;23.378;2023-01-08T05:01:39;94906.81;;;2.36;100.00
6833;BME280;3454;42.654;23.378;2023-01-08T05:04:04;94903.75;;;2.46;100.00
6833;BME280;3454;42.654;23.378;2023-01-08T05:06:31;94903.09;;;2.43;100.00
6833;BME280;3454;42.654;23.378;2023-01-08T05:08:57;94901.50;;;2.42;100.00
6833;BME280;3454;42.654;23.378;2023-01-08T05:11:23;94884.00;;;2.40;100.00
6833;BME280;3454;42.654;23.378;2023-01-08T05:13:51;94905.84;;;2.55;100.00
6833;BME280;3454;42.654;23.378;2023-01-08T05:16:17;94906.47;;;2.59;100.00
6833;BME280;3454;42.654;23.378;2023-01-08T05:18:43;94932.75;;;2.69;99.61
6833;BME280;3454;42.654;23.378;2023-01-08T05:21:09;94928.53;;;2.52;98.81
6833;BME280;3454;42.654;23.378;2023-01-08T05:23:35;94936.16;;;2.51;99.17
6833;BME280;3454;42.654;23.378;2023-01-08T05:26:03;94917.16;;;2.30;100.00
6833;BME280;3454;42.654;23.378;2023-01-08T05:28:29;94899.72;;;2.27;100.00
6833;BME280;3454;42.654;23.378;2023-01-08T05:30:56;94906.91;;;2.17;100.00
6833;BME280;3454;42.654;23.378;2023-01-08T05:33:22;94909.78;;;2.10;100.00
6833;BME280;3454;42.654;23.378;2023-01-08T05:35:47;94894.66;;;2.11;100.00
6833;BME280;3454;42.654;23.378;2023-01-08T05:38:13;94888.53;;;2.00;100.00
6833;BME280;3454;42.654;23.378;2023-01-08T05:40:38;94917.06;;;2.14;100.00
6833;BME280;3454;42.654;23.378;2023-01-08T05:43:03;94919.19;;;2.05;100.00
6833;BME280;3454;42.654;23.378;2023-01-08T05:45:30;94909.25;;;2.03;100.00
6833;BME280;3454;42.654;23.378;2023-01-08T05:47:56;94920.38;;;1.98;100.00
6833;BME280;3454;42.654;23.378;2023-01-08T05:50:21;94914.88;;;1.73;100.00
6833;BME280;3454;42.654;23.378;2023-01-08T05:52:47;94915.34;;;1.81;100.00
6833;BME280;3454;42.654;23.378;2023-01-08T05:55:12;94906.56;;;1.72;100.00
6833;BME280;3454;42.654;23.378;2023-01-08T05:57:38;94918.97;;;1.92;100.00
6833;BME280;3454;42.654;23.378;2023-01-08T06:00:05;94916.13;;;2.00;100.00
6833;BME280;3454;42.654;23.378;2023-01-08T06:02:31;94922.66;;;2.02;100.00
6833;BME280;3454;42.654;23.378;2023-01-08T06:04:56;94927.03;;;2.16;100.00
6833;BME280;3454;42.654;23.378;2023-01-08T06:07:22;94925.41;;;2.15;100.00
6833;BME280;3454;42.654;23.378;2023-01-08T06:09:47;94913.59;;;2.00;100.00
6833;BME280;3454;42.654;23.378;2023-01-08T06:12:12;94923.22;;;1.90;100.00
6833;BME280;3454;42.654;23.378;2023-01-08T06:14:38;94921.09;;;1.83;100.00
6833;BME280;3454;42.654;23.378;2023-01-08T06:17:03;94922.19;;;1.77;100.00
6833;BME280;3454;42.654;23.378;2023-01-08T06:19:28;94926.47;;;1.75;100.00
6833;BME280;3454;42.654;23.378;2023-01-08T06:21:54;94926.28;;;1.80;100.00
6833;BME280;3454;42.654;23.378;2023-01-08T06:24:20;94933.78;;;1.97;100.00
6833;BME280;3454;42.654;23.378;2023-01-08T06:26:45;94921.72;;;2.05;100.00
6833;BME280;3454;42.654;23.378;2023-01-08T06:29:11;94933.09;;;2.12;100.00
6833;BME280;3454;42.654;23.378;2023-01-08T06:31:36;94943.13;;;2.12;100.00
6833;BME280;3454;42.654;23.378;2023-01-08T06:34:02;94939.56;;;2.16;100.00
6833;BME280;3454;42.654;23.378;2023-01-08T06:36:27;94945.78;;;2.26;100.00
6833;BME280;3454;42.654;23.378;2023-01-08T06:38:52;94932.78;;;2.18;100.00
6833;BME280;3454;42.654;23.378;2023-01-08T06:41:20;94933.81;;;2.31;100.00
6833;BME280;3454;42.654;23.378;2023-01-08T06:43:45;94955.06;;;2.41;100.00
6833;BME280;3454;42.654;23.378;2023-01-08T06:46:11;94935.88;;;2.40;100.00
6833;BME280;3454;42.654;23.378;2023-01-08T06:48:43;94945.97;;;2.55;100.00
6833;BME280;3454;42.654;23.378;2023-01-08T06:51:09;94946.72;;;2.58;100.00
6833;BME280;3454;42.654;23.378;2023-01-08T06:53:34;94964.09;;;2.78;100.00
6833;BME280;3454;42.654;23.378;2023-01-08T06:56:02;94966.72;;;2.92;100.00
6833;BME280;3454;42.654;23.378;2023-01-08T06:58:28;94974.16;;;3.10;100.00
6833;BME280;3454;42.654;23.378;2023-01-08T07:00:54;94967.06;;;3.50;100.00
6833;BME280;3454;42.654;23.378;2023-01-08T07:03:20;95008.19;;;3.64;99.10
6833;BME280;3454;42.654;23.378;2023-01-08T07:05:45;94975.59;;;3.63;100.00
6833;BME280;3454;42.654;23.378;2023-01-08T07:08:13;94996.03;;;3.57;98.90
6833;BME280;3454;42.654;23.378;2023-01-08T07:10:39;95003.81;;;3.68;98.24
6833;BME280;3454;42.654;23.378;2023-01-08T07:13:05;95030.34;;;3.89;96.26
6833;BME280;3454;42.654;23.378;2023-01-08T07:15:32;94918.84;;;4.19;100.00
6833;BME280;3454;42.654;23.378;2023-01-08T07:17:57;94982.44;;;6.06;100.00
6833;BME280;3454;42.654;23.378;2023-01-08T07:20:24;94981.16;;;7.04;100.00
6833;BME280;3454;42.654;23.378;2023-01-08T07:22:50;94979.16;;;6.45;100.00
6833;BME280;3454;42.654;23.378;2023-01-08T07:25:15;95042.88;;;6.36;100.00
6833;BME280;3454;42.654;23.378;2023-01-08T07:27:48;95191.91;;;6.06;100.00
6833;BME280;3454;42.654;23.378;2023-01-08T07:30:13;95193.53;;;5.93;100.00
6833;BME280;3454;42.654;23.378;2023-01-08T07:32:39;95200.13;;;5.80;100.00
6833;BME280;3454;42.654;23.378;2023-01-08T07:35:05;95215.09;;;5.83;100.00
6833;BME280;3454;42.654;23.378;2023-01-08T07:37:30;95006.66;;;6.23;100.00
6833;BME280;3454;42.654;23.378;2023-01-08T07:39:56;95184.28;;;5.78;100.00
6833;BME280;3454;42.654;23.378;2023-01-08T07:42:21;95227.81;;;5.81;100.00
6833;BME280;3454;42.654;23.378;2023-01-08T07:44:47;95193.28;;;5.68;100.00
6833;BME280;3454;42.654;23.378;2023-01-08T07:47:12;95186.81;;;5.78;100.00
6833;BME280;3454;42.654;23.378;2023-01-08T07:49:37;95155.91;;;5.74;100.00
6833;BME280;3454;42.654;23.378;2023-01-08T07:52:03;95170.97;;;5.90;100.00
6833;BME280;3454;42.654;23.378;2023-01-08T07:54:28;95190.44;;;6.02;100.00
6833;BME280;3454;42.654;23.378;2023-01-08T07:56:54;95213.38;;;6.13;100.00
6833;BME280;3454;42.654;23.378;2023-01-08T07:59:19;95219.66;;;6.20;100.00
6833;BME280;3454;42.654;23.378;2023-01-08T08:01:44;95257.72;;;6.31;100.00
6833;BME280;3454;42.654;23.378;2023-01-08T08:04:10;95250.97;;;6.18;100.00
6833;BME280;3454;42.654;23.378;2023-01-08T08:06:38;95238.41;;;6.02;100.00
6833;BME280;3454;42.654;23.378;2023-01-08T08:09:03;95235.97;;;6.15;100.00
6833;BME280;3454;42.654;23.378;2023-01-08T08:11:28;95221.66;;;6.15;100.00
6833;BME280;3454;42.654;23.378;2023-01-08T08:13:54;95209.13;;;6.28;100.00
6833;BME280;3454;42.654;23.378;2023-01-08T08:16:19;95245.34;;;6.55;100.00
6833;BME280;3454;42.654;23.378;2023-01-08T08:18:45;95239.66;;;6.79;100.00
6833;BME280;3454;42.654;23.378;2023-01-08T08:21:10;95235.91;;;6.99;100.00
6833;BME280;3454;42.654;23.378;2023-01-08T08:23:36;95280.44;;;7.28;100.00
6833;BME280;3454;42.654;23.378;2023-01-08T08:26:03;95297.72;;;7.48;100.00
6833;BME280;3454;42.654;23.378;2023-01-08T08:28:28;95296.22;;;7.58;100.00
6833;BME280;3454;42.654;23.378;2023-01-08T08:30:54;95289.63;;;7.83;100.00
6833;BME280;3454;42.654;23.378;2023-01-08T08:33:19;95321.84;;;8.32;100.00
6833;BME280;3454;42.654;23.378;2023-01-08T08:35:48;95343.53;;;8.36;100.00
6833;BME280;3454;42.654;23.378;2023-01-08T08:38:14;95365.03;;;8.81;100.00
6833;BME280;3454;42.654;23.378;2023-01-08T08:40:41;95353.25;;;8.93;100.00
6833;BME280;3454;42.654;23.378;2023-01-08T08:43:08;95341.09;;;8.85;100.00
6833;BME280;3454;42.654;23.378;2023-01-08T08:45:34;95377.19;;;9.26;100.00
6833;BME280;3454;42.654;23.378;2023-01-08T08:48:00;95378.91;;;9.26;97.29
6833;BME280;3454;42.654;23.378;2023-01-08T08:50:26;95374.81;;;9.36;79.85
6833;BME280;3454;42.654;23.378;2023-01-08T08:52:51;95388.31;;;9.73;77.02
6833;BME280;3454;42.654;23.378;2023-01-08T08:55:17;95402.66;;;9.97;75.51
6833;BME280;3454;42.654;23.378;2023-01-08T08:57:44;95380.66;;;10.09;76.13
6833;BME280;3454;42.654;23.378;2023-01-08T09:00:10;95406.19;;;10.07;74.05
6833;BME280;3454;42.654;23.378;2023-01-08T09:02:36;95432.19;;;10.35;73.43
6833;BME280;3454;42.654;23.378;2023-01-08T09:05:01;95440.72;;;10.57;72.47
6833;BME280;3454;42.654;23.378;2023-01-08T09:07:27;95446.31;;;10.73;71.67
6833;BME280;3454;42.654;23.378;2023-01-08T09:09:52;95458.84;;;10.87;70.90
6833;BME280;3454;42.654;23.378;2023-01-08T09:12:17;95464.22;;;11.07;70.25
6833;BME280;3454;42.654;23.378;2023-01-08T09:14:43;95486.56;;;11.36;69.00
6833;BME280;3454;42.654;23.378;2023-01-08T09:17:08;95512.06;;;11.58;67.59
6833;BME280;3454;42.654;23.378;2023-01-08T09:19:34;95522.06;;;11.84;66.73
6833;BME280;3454;42.654;23.378;2023-01-08T09:22:00;95496.94;;;11.79;65.88
6833;BME280;3454;42.654;23.378;2023-01-08T09:24:27;95508.63;;;12.04;65.58
6833;BME280;3454;42.654;23.378;2023-01-08T09:26:53;95520.63;;;12.24;65.20
6833;BME280;3454;42.654;23.378;2023-01-08T09:29:19;95527.66;;;12.42;64.32
6833;BME280;3454;42.654;23.378;2023-01-08T09:31:44;95530.81;;;12.66;64.24
6833;BME280;3454;42.654;23.378;2023-01-08T09:34:10;95553.44;;;12.71;62.77
6833;BME280;3454;42.654;23.378;2023-01-08T09:36:36;95522.81;;;12.71;63.07
6833;BME280;3454;42.654;23.378;2023-01-08T09:39:01;95523.06;;;12.68;62.76
6833;BME280;3454;42.654;23.378;2023-01-08T09:41:30;95507.91;;;12.87;62.76
6833;BME280;3454;42.654;23.378;2023-01-08T09:43:57;94835.59;;;13.28;100.00
6833;BME280;3454;42.654;23.378;2023-01-08T09:46:26;95491.59;;;13.91;66.10
6833;BME280;3454;42.654;23.378;2023-01-08T09:48:56;95501.31;;;13.67;62.63
6833;BME280;3454;42.654;23.378;2023-01-08T09:51:26;95483.34;;;13.27;61.58
6833;BME280;3454;42.654;23.378;2023-01-08T09:53:56;95474.91;;;13.27;61.05
6833;BME280;3454;42.654;23.378;2023-01-08T09:56:21;95475.63;;;13.18;60.56
6833;BME280;3454;42.654;23.378;2023-01-08T10:01:18;95398.81;;;13.00;62.68
6833;BME280;3454;42.654;23.378;2023-01-08T10:03:56;95415.19;;;13.18;62.37
6833;BME280;3454;42.654;23.378;2023-01-08T10:06:23;95422.63;;;13.31;61.38
6833;BME280;3454;42.654;23.378;2023-01-08T10:08:50;95396.47;;;13.38;62.46
6833;BME280;3454;42.654;23.378;2023-01-08T10:11:16;95369.00;;;13.71;63.36
6833;BME280;3454;42.654;23.378;2023-01-08T10:13:47;95458.47;;;13.80;59.79
6833;BME280;3454;42.654;23.378;2023-01-08T10:16:21;95459.75;;;13.65;58.96
6833;BME280;3454;42.654;23.378;2023-01-08T10:18:49;95422.50;;;13.72;60.29
6833;BME280;3454;42.654;23.378;2023-01-08T10:21:16;95455.59;;;13.74;58.55
6833;BME280;3454;42.654;23.378;2023-01-08T10:23:50;95445.81;;;13.79;58.43
6833;BME280;3454;42.654;23.378;2023-01-08T10:26:28;95448.28;;;13.60;58.67
6833;BME280;3454;42.654;23.378;2023-01-08T10:29:13;95426.59;;;13.44;58.87
6833;BME280;3454;42.654;23.378;2023-01-08T10:31:52;95388.81;;;12.97;59.72
6833;BME280;3454;42.654;23.378;2023-01-08T10:36:57;95408.09;;;13.62;58.78
6833;BME280;3454;42.654;23.378;2023-01-08T10:39:26;95378.41;;;13.30;59.40
6833;BME280;3454;42.654;23.378;2023-01-08T10:41:56;95355.59;;;13.38;60.25
6833;BME280;3454;42.654;23.378;2023-01-08T10:44:28;95413.44;;;13.98;58.12
6833;BME280;3454;42.654;23.378;2023-01-08T10:46:57;95370.88;;;13.78;57.24
6833;BME280;3454;42.654;23.378;2023-01-08T10:49:31;95436.75;;;14.14;56.85
6833;BME280;3454;42.654;23.378;2023-01-08T10:51:58;95406.38;;;14.30;57.03
6833;BME280;3454;42.654;23.378;2023-01-08T10:54:36;95436.88;;;14.22;56.24
6833;BME280;3454;42.654;23.378;2023-01-08T10:57:19;95359.16;;;13.76;58.27
6833;BME280;3454;42.654;23.378;2023-01-08T10:59:45;95380.19;;;14.08;57.19
6833;BME280;3454;42.654;23.378;2023-01-08T11:02:35;95391.13;;;14.19;56.83
6833;BME280;3454;42.654;23.378;2023-01-08T11:05:03;95406.41;;;14.40;56.42
6833;BME280;3454;42.654;23.378;2023-01-08T11:07:30;95385.41;;;14.46;55.80
6833;BME280;3454;42.654;23.378;2023-01-08T11:09:59;95422.94;;;14.46;53.78
6833;BME280;3454;42.654;23.378;2023-01-08T11:12:37;95366.69;;;14.36;55.48
6833;BME280;3454;42.654;23.378;2023-01-08T11:15:07;95350.06;;;14.02;55.87
6833;BME280;3454;42.654;23.378;2023-01-08T11:17:48;95333.91;;;14.20;56.14
6833;BME280;3454;42.654;23.378;2023-01-08T11:20:23;95357.22;;;14.37;55.48
6833;BME280;3454;42.654;23.378;2023-01-08T11:23:03;95358.72;;;14.39;55.23
6833;BME280;3454;42.654;23.378;2023-01-08T11:25:29;95351.59;;;14.52;54.81
6833;BME280;3454;42.654;23.378;2023-01-08T11:27:55;95386.81;;;14.77;53.89
6833;BME280;3454;42.654;23.378;2023-01-08T11:30:23;95343.88;;;14.14;55.13
6833;BME280;3454;42.654;23.378;2023-01-08T11:33:04;95387.78;;;14.57;53.31
6833;BME280;3454;42.654;23.378;2023-01-08T11:35:36;95370.28;;;14.62;53.81
6833;BME280;3454;42.654;23.378;2023-01-08T11:38:05;95356.00;;;14.69;54.18
6833;BME280;3454;42.654;23.378;2023-01-08T11:46:08;95405.41;;;14.89;51.38
6833;BME280;3454;42.654;23.378;2023-01-08T11:57:53;95302.09;;;14.80;54.67
6833;BME280;3454;42.654;23.378;2023-01-08T12:00:42;95300.25;;;14.63;54.13
6833;BME280;3454;42.654;23.378;2023-01-08T12:03:42;95358.09;;;15.02;52.66
6833;BME280;3454;42.654;23.378;2023-01-08T12:11:27;95374.09;;;15.51;51.08
6833;BME280;3454;42.654;23.378;2023-01-08T12:35:28;95345.19;;;15.58;50.39
6833;BME280;3454;42.654;23.378;2023-01-08T12:38:03;95350.28;;;15.31;50.01
6833;BME280;3454;42.654;23.378;2023-01-08T12:40:39;95324.81;;;15.30;50.73
6833;BME280;3454;42.654;23.378;2023-01-08T12:43:29;95306.00;;;15.11;51.26
6833;BME280;3454;42.654;23.378;2023-01-08T12:45:58;95322.09;;;15.31;50.59
6833;BME280;3454;42.654;23.378;2023-01-08T12:48:30;95308.72;;;15.47;50.77
6833;BME280;3454;42.654;23.378;2023-01-08T12:56:45;95307.63;;;15.12;50.61
6833;BME280;3454;42.654;23.378;2023-01-08T13:04:50;95313.69;;;15.48;50.02
6833;BME280;3454;42.654;23.378;2023-01-08T13:07:40;95321.28;;;15.67;49.62
6833;BME280;3454;42.654;23.378;2023-01-08T13:10:18;95311.97;;;15.66;49.52
6833;BME280;3454;42.654;23.378;2023-01-08T13:12:49;95336.09;;;15.91;49.16
6833;BME280;3454;42.654;23.378;2023-01-08T13:15:24;95325.69;;;15.48;48.98
6833;BME280;3454;42.654;23.378;2023-01-08T13:17:52;95292.91;;;15.42;49.71
6833;BME280;3454;42.654;23.378;2023-01-08T13:20:27;95305.19;;;15.48;49.43
6833;BME280;3454;42.654;23.378;2023-01-08T13:22:55;95303.47;;;15.39;49.45
6833;BME280;3454;42.654;23.378;2023-01-08T13:25:25;95302.59;;;15.57;49.34
6833;BME280;3454;42.654;23.378;2023-01-08T13:27:52;95316.91;;;15.50;49.17
6833;BME280;3454;42.654;23.378;2023-01-08T13:32:55;95291.34;;;15.31;49.65
6833;BME280;3454;42.654;23.378;2023-01-08T13:35:27;95277.78;;;15.21;49.75
6833;BME280;3454;42.654;23.378;2023-01-08T13:38:17;95293.88;;;15.13;49.42
6833;BME280;3454;42.654;23.378;2023-01-08T13:45:41;95205.53;;;14.36;51.48
6833;BME280;3454;42.654;23.378;2023-01-08T13:48:23;95237.66;;;14.48;51.06
6833;BME280;3454;42.654;23.378;2023-01-08T13:50:50;95207.53;;;14.23;52.05
6833;BME280;3454;42.654;23.378;2023-01-08T13:53:16;95202.34;;;14.05;52.17
6833;BME280;3454;42.654;23.378;2023-01-08T13:58:39;95147.25;;;13.26;54.29
6833;BME280;3454;42.654;23.378;2023-01-08T14:01:08;94727.72;;;14.40;93.25
6833;BME280;3454;42.654;23.378;2023-01-08T14:03:36;94880.94;;;15.20;90.64
6833;BME280;3454;42.654;23.378;2023-01-08T14:11:23;94891.69;;;15.49;82.40
6833;BME280;3454;42.654;23.378;2023-01-08T14:13:52;95218.75;;;14.95;63.57
6833;BME280;3454;42.654;23.378;2023-01-08T14:16:19;95236.22;;;14.36;61.63
6833;BME280;3454;42.654;23.378;2023-01-08T14:18:45;95172.75;;;13.84;62.80
6833;BME280;3454;42.654;23.378;2023-01-08T14:21:12;95087.97;;;13.32;66.06
6833;BME280;3454;42.654;23.378;2023-01-08T14:23:45;95040.00;;;12.98;68.13
6833;BME280;3454;42.654;23.378;2023-01-08T14:26:33;95055.28;;;12.79;67.23
6833;BME280;3454;42.654;23.378;2023-01-08T14:29:14;95026.81;;;12.74;67.95
6833;BME280;3454;42.654;23.378;2023-01-08T14:31:54;95015.38;;;12.49;68.18
6833;BME280;3454;42.654;23.378;2023-01-08T14:34:22;94996.56;;;12.21;69.15
6833;BME280;3454;42.654;23.378;2023-01-08T14:36:49;94970.47;;;11.89;70.41
6833;BME280;3454;42.654;23.378;2023-01-08T14:39:42;94947.25;;;11.73;71.15
6833;BME280;3454;42.654;23.378;2023-01-08T14:42:31;94963.50;;;11.61;70.06
6833;BME280;3454;42.654;23.378;2023-01-08T14:45:27;94928.72;;;11.41;71.48
6833;BME280;3454;42.654;23.378;2023-01-08T14:47:57;94871.72;;;11.23;73.86
6833;BME280;3454;42.654;23.378;2023-01-08T14:50:29;94887.00;;;11.23;73.36
6833;BME280;3454;42.654;23.378;2023-01-08T14:52:59;94890.56;;;11.11;73.19
6833;BME280;3454;42.654;23.378;2023-01-08T14:55:28;94844.81;;;10.90;74.29
6833;BME280;3454;42.654;23.378;2023-01-08T14:57:54;94813.78;;;10.66;75.53
6833;BME280;3454;42.654;23.378;2023-01-08T15:00:27;94785.66;;;10.58;78.17